sensor_id;sensor_type;location;lat;lon;timestamp;pressure;altitude;pressure_sealevel;temperature;humidity
17254;BME280;32542;52.832;13.816;2023-01-16T00:00:44;99872.09;;;21.29;54.07
17254;BME280;32542;52.832;13.816;2023-01-16T00:03:47;99872.03;;;21.31;54.04
17254;BME280;32542;52.832;13.816;2023-01-16T00:06:51;99868.38;;;21.32;53.95
17254;BME280;32542;52.832;13.816;2023-01-16T00:09:54;99862.03;;;21.34;53.88
17254;BME280;32542;52.832;13.816;2023-01-16T00:12:57;99873.44;;;21.36;53.88
17254;BME280;32542;52.832;13.816;2023-01-16T00:16:00;99877.13;;;21.34;53.97
17254;BME280;32542;52.832;13.816;2023-01-16T00:19:03;99867.47;;;21.33;54.07
17254;BME280;32542;52.832;13.816;2023-01-16T00:22:07;99862.25;;;21.31;53.99
17254;BME280;32542;52.832;13.816;2023-01-16T00:25:10;99865.72;;;21.32;54.01
17254;BME280;32542;52.832;13.816;2023-01-16T00:28:13;99865.94;;;21.29;54.02
17254;BME280;32542;52.832;13.816;2023-01-16T00:31:17;99867.63;;;21.30;53.97
17254;BME280;32542;52.832;13.816;2023-01-16T00:34:20;99865.09;;;21.28;54.04
17254;BME280;32542;52.832;13.816;2023-01-16T00:37:24;99859.75;;;21.28;53.99
17254;BME280;32542;52.832;13.816;2023-01-16T00:40:28;99858.13;;;21.26;54.07
17254;BME280;32542;52.832;13.816;2023-01-16T00:43:31;99867.00;;;21.26;54.09
17254;BME280;32542;52.832;13.816;2023-01-16T00:46:34;99864.44;;;21.25;54.00
17254;BME280;32542;52.832;13.816;2023-01-16T00:49:37;99865.38;;;21.24;54.24
17254;BME280;32542;52.832;13.816;2023-01-16T00:52:41;99861.84;;;21.23;54.13
17254;BME280;32542;52.832;13.816;2023-01-16T00:55:44;99862.81;;;21.22;54.17
17254;BME280;32542;52.832;13.816;2023-01-16T00:58:47;99857.56;;;21.21;54.12
17254;BME280;32542;52.832;13.816;2023-01-16T01:01:50;99862.88;;;21.21;54.16
17254;BME280;32542;52.832;13.816;2023-01-16T01:04:53;99860.34;;;21.19;54.22
17254;BME280;32542;52.832;13.816;2023-01-16T01:07:57;99863.00;;;21.19;54.17
17254;BME280;32542;52.832;13.816;2023-01-16T01:11:05;99878.09;;;21.19;54.27
17254;BME280;32542;52.832;13.816;2023-01-16T01:14:08;99871.09;;;21.18;54.29
17254;BME280;32542;52.832;13.816;2023-01-16T01:17:11;99873.75;;;21.18;54.25
17254;BME280;32542;52.832;13.816;2023-01-16T01:20:14;99879.09;;;21.18;54.04
17254;BME280;32542;52.832;13.816;2023-01-16T01:23:18;99877.34;;;21.17;54.24
17254;BME280;32542;52.832;13.816;2023-01-16T01:26:21;99870.34;;;21.16;54.21
17254;BME280;32542;52.832;13.816;2023-01-16T01:29:24;99871.19;;;21.16;54.20
17254;BME280;32542;52.832;13.816;2023-01-16T01:32:27;99873.00;;;21.16;54.21
17254;BME280;32542;52.832;13.816;2023-01-16T01:35:30;99874.81;;;21.15;54.30
17254;BME280;32542;52.832;13.816;2023-01-16T01:38:35;99880.13;;;21.15;54.30
17254;BME280;32542;52.832;13.816;2023-01-16T01:41:38;99868.63;;;21.15;54.22
17254;BME280;32542;52.832;13.816;2023-01-16T01:44:50;99870.44;;;21.14;54.28
17254;BME280;32542;52.832;13.816;2023-01-16T01:47:57;99868.63;;;21.15;54.21
17254;BME280;32542;52.832;13.816;2023-01-16T01:51:06;99873.09;;;21.14;54.27
17254;BME280;32542;52.832;13.816;2023-01-16T01:54:16;99867.78;;;21.14;54.17
17254;BME280;32542;52.832;13.816;2023-01-16T01:57:21;99873.09;;;21.14;54.15
17254;BME280;32542;52.832;13.816;2023-01-16T02:00:27;99872.25;;;21.14;54.26
17254;BME280;32542;52.832;13.816;2023-01-16T02:03:34;99873.19;;;21.13;54.23
17254;BME280;32542;52.832;13.816;2023-01-16T02:06:43;99878.50;;;21.13;54.22
17254;BME280;32542;52.832;13.816;2023-01-16T02:09:50;99874.16;;;21.12;54.27
17254;BME280;32542;52.832;13.816;2023-01-16T02:12:55;99867.97;;;21.11;54.20
17254;BME280;32542;52.832;13.816;2023-01-16T02:15:58;99874.16;;;21.12;54.12
17254;BME280;32542;52.832;13.816;2023-01-16T02:19:25;99874.03;;;21.13;54.15
17254;BME280;32542;52.832;13.816;2023-01-16T02:26:20;99862.53;;;21.13;54.21
17254;BME280;32542;52.832;13.816;2023-01-16T02:29:49;99863.50;;;21.12;54.21
17254;BME280;32542;52.832;13.816;2023-01-16T02:33:04;99865.19;;;21.13;54.09
17254;BME280;32542;52.832;13.816;2023-01-16T02:36:12;99856.38;;;21.12;54.11
17254;BME280;32542;52.832;13.816;2023-01-16T02:39:22;99865.19;;;21.13;54.09
17254;BME280;32542;52.832;13.816;2023-01-16T02:42:30;99857.31;;;21.11;54.09
17254;BME280;32542;52.832;13.816;2023-01-16T02:45:42;99859.88;;;21.13;54.06
17254;BME280;32542;52.832;13.816;2023-01-16T02:48:52;99866.16;;;21.12;54.18
17254;BME280;32542;52.832;13.816;2023-01-16T02:52:07;99849.44;;;21.10;54.09
17254;BME280;32542;52.832;13.816;2023-01-16T02:55:19;99849.44;;;21.10;54.11
17254;BME280;32542;52.832;13.816;2023-01-16T02:58:24;99843.06;;;21.12;54.08
17254;BME280;32542;52.832;13.816;2023-01-16T03:01:27;99845.63;;;21.14;54.01
17254;BME280;32542;52.832;13.816;2023-01-16T03:04:44;99832.19;;;21.15;53.91
17254;BME280;32542;52.832;13.816;2023-01-16T03:08:25;99836.59;;;21.16;53.88
17254;BME280;32542;52.832;13.816;2023-01-16T03:11:37;99831.34;;;21.15;53.97
17254;BME280;32542;52.832;13.816;2023-01-16T03:14:50;99822.59;;;21.13;54.00
17254;BME280;32542;52.832;13.816;2023-01-16T03:18:05;99823.47;;;21.13;53.97
17254;BME280;32542;52.832;13.816;2023-01-16T03:21:16;99825.19;;;21.14;54.00
17254;BME280;32542;52.832;13.816;2023-01-16T03:24:29;99819.94;;;21.13;53.96
17254;BME280;32542;52.832;13.816;2023-01-16T03:27:40;99804.94;;;21.12;53.91
17254;BME280;32542;52.832;13.816;2023-01-16T03:30:50;99803.22;;;21.11;53.90
17254;BME280;32542;52.832;13.816;2023-01-16T03:33:59;99803.22;;;21.11;54.07
17254;BME280;32542;52.832;13.816;2023-01-16T03:37:18;99788.75;;;21.15;53.80
17254;BME280;32542;52.832;13.816;2023-01-16T03:40:26;99791.00;;;21.21;53.69
17254;BME280;32542;52.832;13.816;2023-01-16T03:43:32;99797.94;;;21.23;53.62
17254;BME280;32542;52.832;13.816;2023-01-16T03:46:39;99798.81;;;21.24;53.56
17254;BME280;32542;52.832;13.816;2023-01-16T03:49:46;99802.22;;;21.26;53.59
17254;BME280;32542;52.832;13.816;2023-01-16T03:52:56;99799.44;;;21.27;53.56
17254;BME280;32542;52.832;13.816;2023-01-16T03:56:07;99789.66;;;21.28;53.49
17254;BME280;32542;52.832;13.816;2023-01-16T03:59:23;99793.31;;;21.27;53.60
17254;BME280;32542;52.832;13.816;2023-01-16T04:02:30;99790.72;;;21.25;53.60
17254;BME280;32542;52.832;13.816;2023-01-16T04:05:38;99784.56;;;21.25;53.56
17254;BME280;32542;52.832;13.816;2023-01-16T04:08:44;99782.72;;;21.25;53.56
17254;BME280;32542;52.832;13.816;2023-01-16T04:11:50;99768.59;;;21.25;53.57
17254;BME280;32542;52.832;13.816;2023-01-16T04:14:55;99771.13;;;21.26;53.50
17254;BME280;32542;52.832;13.816;2023-01-16T04:17:59;99774.66;;;21.27;53.59
17254;BME280;32542;52.832;13.816;2023-01-16T04:21:03;99778.38;;;21.24;53.59
17254;BME280;32542;52.832;13.816;2023-01-16T04:24:08;99766.84;;;21.24;53.67
17254;BME280;32542;52.832;13.816;2023-01-16T04:27:11;99762.50;;;21.23;53.64
17254;BME280;32542;52.832;13.816;2023-01-16T04:30:15;99758.97;;;21.22;53.64
17254;BME280;32542;52.832;13.816;2023-01-16T04:33:18;99761.53;;;21.24;53.62
17254;BME280;32542;52.832;13.816;2023-01-16T04:36:21;99753.44;;;21.25;53.52
17254;BME280;32542;52.832;13.816;2023-01-16T04:39:26;99756.84;;;21.27;53.50
17254;BME280;32542;52.832;13.816;2023-01-16T04:42:29;99747.91;;;21.28;53.51
17254;BME280;32542;52.832;13.816;2023-01-16T04:45:32;99746.94;;;21.29;53.43
17254;BME280;32542;52.832;13.816;2023-01-16T04:48:35;99738.13;;;21.29;53.50
17254;BME280;32542;52.832;13.816;2023-01-16T04:51:37;99738.13;;;21.29;53.50
17254;BME280;32542;52.832;13.816;2023-01-16T04:54:42;99733.84;;;21.26;53.47
17254;BME280;32542;52.832;13.816;2023-01-16T04:57:45;99724.25;;;21.24;53.45
17254;BME280;32542;52.832;13.816;2023-01-16T05:00:48;99730.56;;;21.23;53.63
17254;BME280;32542;52.832;13.816;2023-01-16T05:03:51;99719.13;;;21.21;53.61
17254;BME280;32542;52.832;13.816;2023-01-16T05:06:54;99722.56;;;21.23;53.57
17254;BME280;32542;52.832;13.816;2023-01-16T05:09:58;99720.84;;;21.22;53.52
17254;BME280;32542;52.832;13.816;2023-01-16T05:13:01;99722.56;;;21.23;53.52
17254;BME280;32542;52.832;13.816;2023-01-16T05:16:04;99719.13;;;21.21;53.67
17254;BME280;32542;52.832;13.816;2023-01-16T05:19:08;99710.38;;;21.19;53.72
17254;BME280;32542;52.832;13.816;2023-01-16T05:22:11;99712.41;;;21.15;53.67
17254;BME280;32542;52.832;13.816;2023-01-16T05:25:15;99711.66;;;21.13;53.79
17254;BME280;32542;52.832;13.816;2023-01-16T05:28:18;99704.66;;;21.12;53.82
17254;BME280;32542;52.832;13.816;2023-01-16T05:31:21;99695.88;;;21.10;53.86
17254;BME280;32542;52.832;13.816;2023-01-16T05:34:24;99696.75;;;21.11;53.85
17254;BME280;32542;52.832;13.816;2023-01-16T05:37:27;99688.88;;;21.09;53.89
17254;BME280;32542;52.832;13.816;2023-01-16T05:40:31;99693.31;;;21.09;53.87
17254;BME280;32542;52.832;13.816;2023-01-16T05:43:34;99695.06;;;21.10;53.86
17254;BME280;32542;52.832;13.816;2023-01-16T05:46:36;99698.66;;;21.09;53.75
17254;BME280;32542;52.832;13.816;2023-01-16T05:49:39;99692.47;;;21.08;53.81
17254;BME280;32542;52.832;13.816;2023-01-16T05:52:42;99688.00;;;21.09;53.85
17254;BME280;32542;52.832;13.816;2023-01-16T05:55:47;99696.84;;;21.09;53.90
17254;BME280;32542;52.832;13.816;2023-01-16T05:58:49;99688.00;;;21.09;53.81
17254;BME280;32542;52.832;13.816;2023-01-16T06:01:52;99681.81;;;21.08;53.83
17254;BME280;32542;52.832;13.816;2023-01-16T06:04:55;99686.19;;;21.09;53.72
17254;BME280;32542;52.832;13.816;2023-01-16T06:07:58;99680.00;;;21.09;53.70
17254;BME280;32542;52.832;13.816;2023-01-16T06:11:02;99676.41;;;21.10;53.77
17254;BME280;32542;52.832;13.816;2023-01-16T06:14:05;99684.41;;;21.10;53.75
17254;BME280;32542;52.832;13.816;2023-01-16T06:17:08;99688.69;;;21.12;53.71
17254;BME280;32542;52.832;13.816;2023-01-16T06:20:11;99681.44;;;21.14;53.61
17254;BME280;32542;52.832;13.816;2023-01-16T06:23:16;99681.31;;;21.16;53.53
17254;BME280;32542;52.832;13.816;2023-01-16T06:26:20;99688.44;;;21.15;53.42
17254;BME280;32542;52.832;13.816;2023-01-16T06:29:23;99685.91;;;21.14;53.35
17254;BME280;32542;52.832;13.816;2023-01-16T06:32:26;99673.22;;;21.17;53.21
17254;BME280;32542;52.832;13.816;2023-01-16T06:35:30;99676.63;;;21.19;53.15
17254;BME280;32542;52.832;13.816;2023-01-16T06:38:33;99664.19;;;21.20;53.31
17254;BME280;32542;52.832;13.816;2023-01-16T06:41:37;99653.44;;;21.21;53.11
17254;BME280;32542;52.832;13.816;2023-01-16T06:44:40;99654.28;;;21.22;53.10
17254;BME280;32542;52.832;13.816;2023-01-16T06:47:43;99650.69;;;21.23;53.00
17254;BME280;32542;52.832;13.816;2023-01-16T06:50:46;99651.50;;;21.23;52.92
17254;BME280;32542;52.832;13.816;2023-01-16T06:53:49;99647.06;;;21.24;53.00
17254;BME280;32542;52.832;13.816;2023-01-16T06:56:53;99653.34;;;21.23;53.07
17254;BME280;32542;52.832;13.816;2023-01-16T06:59:56;99647.06;;;21.24;52.96
17254;BME280;32542;52.832;13.816;2023-01-16T07:03:01;99656.00;;;21.23;53.02
17254;BME280;32542;52.832;13.816;2023-01-16T07:06:05;99651.63;;;21.22;53.03
17254;BME280;32542;52.832;13.816;2023-01-16T07:09:08;99648.03;;;21.23;52.95
17254;BME280;32542;52.832;13.816;2023-01-16T07:12:12;99657.88;;;21.21;53.11
17254;BME280;32542;52.832;13.816;2023-01-16T07:15:15;99643.94;;;21.17;53.08
17254;BME280;32542;52.832;13.816;2023-01-16T07:18:36;99645.97;;;21.14;53.34
17254;BME280;32542;52.832;13.816;2023-01-16T07:21:56;99642.34;;;21.15;53.22
17254;BME280;32542;52.832;13.816;2023-01-16T07:25:19;99649.50;;;21.14;53.31
17254;BME280;32542;52.832;13.816;2023-01-16T07:28:25;99646.84;;;21.14;53.39
17254;BME280;32542;52.832;13.816;2023-01-16T07:31:28;99638.72;;;21.16;53.27
17254;BME280;32542;52.832;13.816;2023-01-16T07:34:32;99640.66;;;21.14;53.30
17254;BME280;32542;52.832;13.816;2023-01-16T07:37:36;99634.56;;;21.12;53.41
17254;BME280;32542;52.832;13.816;2023-01-16T07:40:40;99646.09;;;21.12;53.56
17254;BME280;32542;52.832;13.816;2023-01-16T07:43:45;99633.59;;;21.13;53.74
17254;BME280;32542;52.832;13.816;2023-01-16T07:46:47;99633.59;;;21.13;53.68
17254;BME280;32542;52.832;13.816;2023-01-16T07:49:50;99633.53;;;21.14;53.65
17254;BME280;32542;52.832;13.816;2023-01-16T07:52:53;99628.28;;;21.13;53.76
17254;BME280;32542;52.832;13.816;2023-01-16T07:55:58;99621.16;;;21.13;53.77
17254;BME280;32542;52.832;13.816;2023-01-16T07:59:02;99621.16;;;21.13;53.74
17254;BME280;32542;52.832;13.816;2023-01-16T08:02:07;99614.97;;;21.13;53.66
17254;BME280;32542;52.832;13.816;2023-01-16T08:05:10;99606.03;;;21.14;53.69
17254;BME280;32542;52.832;13.816;2023-01-16T08:08:13;99608.69;;;21.14;53.84
17254;BME280;32542;52.832;13.816;2023-01-16T08:11:16;99610.31;;;21.16;53.68
17254;BME280;32542;52.832;13.816;2023-01-16T08:14:38;99611.06;;;21.18;53.60
17254;BME280;32542;52.832;13.816;2023-01-16T08:17:41;99603.91;;;21.19;53.56
17254;BME280;32542;52.832;13.816;2023-01-16T08:20:44;99604.88;;;21.18;53.58
17254;BME280;32542;52.832;13.816;2023-01-16T08:23:47;99599.44;;;21.19;53.39
17254;BME280;32542;52.832;13.816;2023-01-16T08:26:50;99589.53;;;21.21;53.32
17254;BME280;32542;52.832;13.816;2023-01-16T08:29:55;99590.28;;;21.23;53.25
17254;BME280;32542;52.832;13.816;2023-01-16T08:32:58;99582.59;;;21.19;53.42
17254;BME280;32542;52.832;13.816;2023-01-16T08:36:01;99582.84;;;21.16;52.55
17254;BME280;32542;52.832;13.816;2023-01-16T08:39:04;99572.59;;;21.10;49.41
17254;BME280;32542;52.832;13.816;2023-01-16T08:42:07;99569.28;;;21.06;49.43
17254;BME280;32542;52.832;13.816;2023-01-16T08:45:29;99553.63;;;21.02;50.25
17254;BME280;32542;52.832;13.816;2023-01-16T08:48:50;99543.16;;;20.98;48.58
17254;BME280;32542;52.832;13.816;2023-01-16T08:52:10;99544.22;;;20.96;47.94
17254;BME280;32542;52.832;13.816;2023-01-16T08:55:13;99532.63;;;20.97;46.98
17254;BME280;32542;52.832;13.816;2023-01-16T08:58:16;99527.94;;;21.00;46.37
17254;BME280;32542;52.832;13.816;2023-01-16T09:01:24;99528.53;;;21.06;46.43
17254;BME280;32542;52.832;13.816;2023-01-16T09:04:27;99525.44;;;21.12;46.88
17254;BME280;32542;52.832;13.816;2023-01-16T09:07:30;99512.44;;;21.20;47.47
17254;BME280;32542;52.832;13.816;2023-01-16T09:10:33;99507.44;;;21.28;47.72
17254;BME280;32542;52.832;13.816;2023-01-16T09:13:36;99512.31;;;21.34;48.02
17254;BME280;32542;52.832;13.816;2023-01-16T09:16:51;99495.91;;;21.40;48.15
17254;BME280;32542;52.832;13.816;2023-01-16T09:19:54;99486.78;;;21.44;48.24
17254;BME280;32542;52.832;13.816;2023-01-16T09:22:58;99492.84;;;21.46;48.57
17254;BME280;32542;52.832;13.816;2023-01-16T09:26:01;99482.06;;;21.47;48.78
17254;BME280;32542;52.832;13.816;2023-01-16T09:29:04;99471.31;;;21.49;48.94
17254;BME280;32542;52.832;13.816;2023-01-16T09:32:09;99462.38;;;21.50;49.18
17254;BME280;32542;52.832;13.816;2023-01-16T09:35:13;99460.66;;;21.49;49.26
17254;BME280;32542;52.832;13.816;2023-01-16T09:38:16;99450.72;;;21.51;49.54
17254;BME280;32542;52.832;13.816;2023-01-16T09:41:19;99455.31;;;21.49;49.74
17254;BME280;32542;52.832;13.816;2023-01-16T09:44:36;99446.47;;;21.48;49.92
17254;BME280;32542;52.832;13.816;2023-01-16T09:47:42;99438.59;;;21.47;50.06
17254;BME280;32542;52.832;13.816;2023-01-16T09:50:50;99432.41;;;21.46;50.25
17254;BME280;32542;52.832;13.816;2023-01-16T09:53:58;99428.94;;;21.46;50.44
17254;BME280;32542;52.832;13.816;2023-01-16T09:57:19;99425.41;;;21.45;50.65
17254;BME280;32542;52.832;13.816;2023-01-16T10:00:41;99429.00;;;21.44;50.68
17254;BME280;32542;52.832;13.816;2023-01-16T10:03:46;99422.88;;;21.44;50.85
17254;BME280;32542;52.832;13.816;2023-01-16T10:06:56;99406.88;;;21.44;50.97
17254;BME280;32542;52.832;13.816;2023-01-16T10:10:12;99393.56;;;21.44;51.07
17254;BME280;32542;52.832;13.816;2023-01-16T10:13:39;99390.91;;;21.44;51.18
17254;BME280;32542;52.832;13.816;2023-01-16T10:16:54;99384.72;;;21.43;51.23
17254;BME280;32542;52.832;13.816;2023-01-16T10:20:22;99367.88;;;21.43;51.42
17254;BME280;32542;52.832;13.816;2023-01-16T10:23:37;99366.19;;;21.42;51.48
17254;BME280;32542;52.832;13.816;2023-01-16T10:26:56;99369.81;;;21.41;51.57
17254;BME280;32542;52.832;13.816;2023-01-16T10:30:03;99368.00;;;21.41;51.75
17254;BME280;32542;52.832;13.816;2023-01-16T10:33:11;99364.59;;;21.39;51.74
17254;BME280;32542;52.832;13.816;2023-01-16T10:36:18;99367.16;;;21.41;51.90
17254;BME280;32542;52.832;13.816;2023-01-16T10:39:24;99357.44;;;21.40;51.92
17254;BME280;32542;52.832;13.816;2023-01-16T10:42:31;99350.44;;;21.39;51.94
17254;BME280;32542;52.832;13.816;2023-01-16T10:45:54;99344.25;;;21.38;51.96
17254;BME280;32542;52.832;13.816;2023-01-16T10:49:18;99327.31;;;21.39;52.13
17254;BME280;32542;52.832;13.816;2023-01-16T10:52:32;99323.81;;;21.39;52.15
17254;BME280;32542;52.832;13.816;2023-01-16T10:55:38;99315.81;;;21.39;52.18
17254;BME280;32542;52.832;13.816;2023-01-16T10:58:42;99308.69;;;21.39;52.23
17254;BME280;32542;52.832;13.816;2023-01-16T11:01:46;99296.19;;;21.40;52.26
17254;BME280;32542;52.832;13.816;2023-01-16T11:04:50;99290.88;;;21.40;52.24
17254;BME280;32542;52.832;13.816;2023-01-16T11:08:04;99276.72;;;21.39;52.28
17254;BME280;32542;52.832;13.816;2023-01-16T11:11:09;99281.19;;;21.39;52.40
17254;BME280;32542;52.832;13.816;2023-01-16T11:14:34;99270.53;;;21.39;52.45
17254;BME280;32542;52.832;13.816;2023-01-16T11:17:55;99264.38;;;21.38;52.48
17254;BME280;32542;52.832;13.816;2023-01-16T11:21:21;99250.19;;;21.38;52.61
17254;BME280;32542;52.832;13.816;2023-01-16T11:24:31;99249.38;;;21.37;52.54
17254;BME280;32542;52.832;13.816;2023-01-16T11:27:36;99244.13;;;21.36;52.55
17254;BME280;32542;52.832;13.816;2023-01-16T11:30:43;99249.47;;;21.36;52.65
17254;BME280;32542;52.832;13.816;2023-01-16T11:33:50;99234.47;;;21.35;52.62
17254;BME280;32542;52.832;13.816;2023-01-16T11:36:57;99223.81;;;21.35;52.60
17254;BME280;32542;52.832;13.816;2023-01-16T11:40:04;99216.69;;;21.35;52.70
17254;BME280;32542;52.832;13.816;2023-01-16T11:43:17;99210.38;;;21.36;52.73
17254;BME280;32542;52.832;13.816;2023-01-16T11:46:41;99200.72;;;21.35;52.75
17254;BME280;32542;52.832;13.816;2023-01-16T11:49:45;99194.66;;;21.33;52.76
17254;BME280;32542;52.832;13.816;2023-01-16T11:52:49;99194.75;;;21.32;52.92
17254;BME280;32542;52.832;13.816;2023-01-16T11:56:05;99186.03;;;21.30;52.86
17254;BME280;32542;52.832;13.816;2023-01-16T11:59:26;99179.13;;;21.27;52.79
17254;BME280;32542;52.832;13.816;2023-01-16T12:02:47;99173.91;;;21.26;52.87
17254;BME280;32542;52.832;13.816;2023-01-16T12:06:03;99160.72;;;21.24;52.68
17254;BME280;32542;52.832;13.816;2023-01-16T12:09:30;99154.31;;;21.27;52.54
17254;BME280;32542;52.832;13.816;2023-01-16T12:12:41;99137.38;;;21.28;52.58
17254;BME280;32542;52.832;13.816;2023-01-16T12:16:12;99134.72;;;21.28;52.44
17254;BME280;32542;52.832;13.816;2023-01-16T12:19:40;99118.75;;;21.28;52.51
17254;BME280;32542;52.832;13.816;2023-01-16T12:23:00;99116.06;;;21.28;52.51
17254;BME280;32542;52.832;13.816;2023-01-16T12:26:15;99120.53;;;21.27;52.49
17254;BME280;32542;52.832;13.816;2023-01-16T12:29:31;99121.41;;;21.28;52.43
17254;BME280;32542;52.832;13.816;2023-01-16T12:32:47;99114.50;;;21.25;52.45
17254;BME280;32542;52.832;13.816;2023-01-16T12:35:58;99102.28;;;21.23;52.54
17254;BME280;32542;52.832;13.816;2023-01-16T12:39:10;99100.56;;;21.22;52.59
17254;BME280;32542;52.832;13.816;2023-01-16T12:42:27;99090.88;;;21.21;52.51
17254;BME280;32542;52.832;13.816;2023-01-16T12:45:53;99091.00;;;21.19;52.71
17254;BME280;32542;52.832;13.816;2023-01-16T12:49:08;99084.81;;;21.19;52.73
17254;BME280;32542;52.832;13.816;2023-01-16T12:52:27;99073.44;;;21.17;52.66
17254;BME280;32542;52.832;13.816;2023-01-16T12:55:41;99070.06;;;21.15;52.80
17254;BME280;32542;52.832;13.816;2023-01-16T12:59:09;99062.94;;;21.15;52.70
17254;BME280;32542;52.832;13.816;2023-01-16T13:02:23;99059.41;;;21.15;52.63
17254;BME280;32542;52.832;13.816;2023-01-16T13:05:33;99045.16;;;21.16;52.75
17254;BME280;32542;52.832;13.816;2023-01-16T13:08:40;99033.53;;;21.17;52.55
17254;BME280;32542;52.832;13.816;2023-01-16T13:11:55;99035.47;;;21.15;52.80
17254;BME280;32542;52.832;13.816;2023-01-16T13:15:20;99025.78;;;21.14;52.79
17254;BME280;32542;52.832;13.816;2023-01-16T13:18:26;99018.75;;;21.13;52.81
17254;BME280;32542;52.832;13.816;2023-01-16T13:21:34;99009.94;;;21.12;52.76
17254;BME280;32542;52.832;13.816;2023-01-16T13:24:45;99002.91;;;21.11;52.81
17254;BME280;32542;52.832;13.816;2023-01-16T13:27:53;98996.66;;;21.12;52.74
17254;BME280;32542;52.832;13.816;2023-01-16T13:31:01;98992.16;;;21.13;52.67
17254;BME280;32542;52.832;13.816;2023-01-16T13:34:11;98980.69;;;21.12;52.73
17254;BME280;32542;52.832;13.816;2023-01-16T13:37:27;98977.03;;;21.13;52.71
17254;BME280;32542;52.832;13.816;2023-01-16T13:40:51;98974.25;;;21.15;52.69
17254;BME280;32542;52.832;13.816;2023-01-16T13:44:03;98960.22;;;21.13;52.67
17254;BME280;32542;52.832;13.816;2023-01-16T13:47:29;98959.38;;;21.12;52.74
17254;BME280;32542;52.832;13.816;2023-01-16T13:50:35;98957.69;;;21.11;52.71
17254;BME280;32542;52.832;13.816;2023-01-16T13:53:38;98953.22;;;21.12;52.57
17254;BME280;32542;52.832;13.816;2023-01-16T13:56:42;98942.56;;;21.12;52.68
17254;BME280;32542;52.832;13.816;2023-01-16T13:59:47;98949.56;;;21.13;52.71
17254;BME280;32542;52.832;13.816;2023-01-16T14:03:10;98938.09;;;21.12;52.74
17254;BME280;32542;52.832;13.816;2023-01-16T14:06:25;98926.59;;;21.12;52.58
17254;BME280;32542;52.832;13.816;2023-01-16T14:09:28;98926.59;;;21.12;52.68
17254;BME280;32542;52.832;13.816;2023-01-16T14:12:34;98922.94;;;21.13;52.68
17254;BME280;32542;52.832;13.816;2023-01-16T14:15:49;98917.63;;;21.13;52.59
17254;BME280;32542;52.832;13.816;2023-01-16T14:19:21;98917.63;;;21.13;52.61
17254;BME280;32542;52.832;13.816;2023-01-16T14:22:33;98907.84;;;21.13;52.65
17254;BME280;32542;52.832;13.816;2023-01-16T14:25:55;98900.94;;;21.11;52.60
17254;BME280;32542;52.832;13.816;2023-01-16T14:29:00;98892.22;;;21.09;52.71
17254;BME280;32542;52.832;13.816;2023-01-16T14:32:05;98892.22;;;21.09;52.83
17254;BME280;32542;52.832;13.816;2023-01-16T14:35:20;98892.34;;;21.07;52.84
17254;BME280;32542;52.832;13.816;2023-01-16T14:38:28;98888.84;;;21.07;52.78
17254;BME280;32542;52.832;13.816;2023-01-16T14:41:32;98872.88;;;21.07;52.70
17254;BME280;32542;52.832;13.816;2023-01-16T14:45:18;98875.31;;;21.10;52.68
17254;BME280;32542;52.832;13.816;2023-01-16T14:48:41;98864.66;;;21.10;52.69
17254;BME280;32542;52.832;13.816;2023-01-16T14:52:08;98862.81;;;21.10;52.78
17254;BME280;32542;52.832;13.816;2023-01-16T14:55:34;98859.34;;;21.10;52.55
17254;BME280;32542;52.832;13.816;2023-01-16T14:58:45;98861.03;;;21.11;52.59
17254;BME280;32542;52.832;13.816;2023-01-16T15:01:58;98861.03;;;21.11;52.56
17254;BME280;32542;52.832;13.816;2023-01-16T15:05:21;98850.63;;;21.08;52.72
17254;BME280;32542;52.832;13.816;2023-01-16T15:08:46;98843.59;;;21.07;52.74
17254;BME280;32542;52.832;13.816;2023-01-16T15:11:56;98840.94;;;21.07;52.66
17254;BME280;32542;52.832;13.816;2023-01-16T15:14:59;98839.28;;;21.06;52.74
17254;BME280;32542;52.832;13.816;2023-01-16T15:18:02;98839.28;;;21.06;52.82
17254;BME280;32542;52.832;13.816;2023-01-16T15:21:23;98825.97;;;21.06;52.76
17254;BME280;32542;52.832;13.816;2023-01-16T15:24:46;98819.66;;;21.07;52.74
17254;BME280;32542;52.832;13.816;2023-01-16T15:27:59;98816.16;;;21.06;52.77
17254;BME280;32542;52.832;13.816;2023-01-16T15:31:09;98837.44;;;21.06;52.75
17254;BME280;32542;52.832;13.816;2023-01-16T15:34:19;98815.31;;;21.06;52.81
17254;BME280;32542;52.832;13.816;2023-01-16T15:37:24;98804.69;;;21.06;52.77
17254;BME280;32542;52.832;13.816;2023-01-16T15:40:29;98810.00;;;21.06;52.80
17254;BME280;32542;52.832;13.816;2023-01-16T15:43:33;98819.78;;;21.05;52.78
17254;BME280;32542;52.832;13.816;2023-01-16T15:47:05;98823.41;;;21.04;52.76
17254;BME280;32542;52.832;13.816;2023-01-16T15:50:25;98806.63;;;21.04;52.73
17254;BME280;32542;52.832;13.816;2023-01-16T15:53:32;98806.63;;;21.04;52.79
17254;BME280;32542;52.832;13.816;2023-01-16T15:56:38;98804.91;;;21.03;52.80
17254;BME280;32542;52.832;13.816;2023-01-16T15:59:57;98798.69;;;21.02;52.84
17254;BME280;32542;52.832;13.816;2023-01-16T16:03:03;98800.53;;;21.02;52.91
17254;BME280;32542;52.832;13.816;2023-01-16T16:06:10;98792.56;;;21.02;52.85
17254;BME280;32542;52.832;13.816;2023-01-16T16:09:16;98782.72;;;21.02;52.74
17254;BME280;32542;52.832;13.816;2023-01-16T16:12:20;98777.41;;;21.02;52.84
17254;BME280;32542;52.832;13.816;2023-01-16T16:15:26;98780.00;;;21.04;52.79
17254;BME280;32542;52.832;13.816;2023-01-16T16:18:54;98770.31;;;21.03;52.66
17254;BME280;32542;52.832;13.816;2023-01-16T16:22:02;98772.97;;;21.03;52.85
17254;BME280;32542;52.832;13.816;2023-01-16T16:25:26;98770.31;;;21.03;52.75
17254;BME280;32542;52.832;13.816;2023-01-16T16:28:34;98766.78;;;21.02;52.79
17254;BME280;32542;52.832;13.816;2023-01-16T16:31:42;98752.66;;;21.02;52.81